Time;durP1;ratioP1;P1;durP2;ratioP2;P2;SDS_P1;SDS_P2;PMS_P1;PMS_P2;Temp;Humidity;BMP_temperature;BMP_pressure;BME280_temperature;BME280_humidity;BME280_pressure;Samples;Min_cycle;Max_cycle;Signal;HPM_P1;HPM_P2
2021/05/02 00:01:58;;;;;;;6.27;5.33;;;7.80;99.90;;;;;;4988179;28;20582;-85
2021/05/02 00:04:26;;;;;;;5.93;5.33;;;7.70;99.90;;;;;;4989130;28;20236;-85
2021/05/02 00:06:52;;;;;;;5.50;4.90;;;7.70;99.90;;;;;;4986179;28;20801;-85
2021/05/02 00:09:20;;;;;;;6.60;5.43;;;7.70;99.90;;;;;;4982017;28;20220;-86
2021/05/02 00:11:46;;;;;;;5.83;4.73;;;7.70;99.90;;;;;;4992305;28;20200;-85
2021/05/02 00:14:13;;;;;;;5.63;5.10;;;7.70;99.90;;;;;;4991111;28;20236;-86
2021/05/02 00:16:40;;;;;;;6.67;5.97;;;7.70;99.90;;;;;;4984814;28;20244;-85
2021/05/02 00:19:08;;;;;;;7.10;5.30;;;7.60;99.90;;;;;;4989506;28;20224;-86
2021/05/02 00:21:35;;;;;;;6.97;5.90;;;7.70;99.90;;;;;;4983859;28;20230;-85
2021/05/02 00:24:03;;;;;;;6.27;5.67;;;7.70;99.90;;;;;;4990534;28;20227;-85
2021/05/02 00:26:31;;;;;;;5.33;4.83;;;7.70;99.90;;;;;;4986437;28;20215;-85
2021/05/02 00:28:59;;;;;;;4.27;3.87;;;7.70;99.90;;;;;;4985362;28;20661;-85
2021/05/02 00:31:26;;;;;;;4.90;4.17;;;7.60;99.90;;;;;;4989697;28;20196;-85
2021/05/02 00:33:52;;;;;;;3.30;3.00;;;7.60;99.90;;;;;;4987273;28;20228;-85
2021/05/02 00:36:19;;;;;;;3.97;3.57;;;7.50;99.90;;;;;;4991610;28;20219;-85
2021/05/02 00:38:45;;;;;;;3.57;3.10;;;7.50;99.90;;;;;;4989738;28;20263;-85
2021/05/02 00:41:17;;;;;;;3.57;3.27;;;7.50;99.90;;;;;;4994967;28;20199;-85
2021/05/02 00:43:54;;;;;;;5.73;4.80;;;7.50;99.90;;;;;;4984476;28;20577;-86
2021/05/02 00:46:25;;;;;;;6.00;5.40;;;7.50;99.90;;;;;;4979809;28;20214;-88
2021/05/02 00:48:59;;;;;;;5.27;4.77;;;7.50;99.90;;;;;;4964951;28;20224;-86
2021/05/02 00:51:28;;;;;;;5.03;4.63;;;7.60;99.90;;;;;;4963452;28;20212;-87
2021/05/02 00:54:14;;;;;;;5.87;5.30;;;7.50;99.90;;;;;;4965303;28;20232;-85
2021/05/02 00:57:07;;;;;;;6.43;5.77;;;7.50;99.90;;;;;;4964705;28;20335;-85
2021/05/02 00:59:43;;;;;;;5.90;5.30;;;7.50;99.90;;;;;;4975757;28;20755;-86
2021/05/02 01:02:12;;;;;;;6.03;5.10;;;7.50;99.90;;;;;;4985924;28;20208;-86
2021/05/02 01:04:42;;;;;;;5.93;5.40;;;7.50;99.90;;;;;;4989422;28;20875;-86
2021/05/02 01:07:14;;;;;;;5.60;4.90;;;7.50;99.90;;;;;;4986376;28;20212;-83
2021/05/02 01:09:41;;;;;;;5.93;5.33;;;7.40;99.90;;;;;;4990860;28;20259;-83
2021/05/02 01:12:11;;;;;;;5.53;5.03;;;7.40;99.90;;;;;;4985529;28;20197;-85
2021/05/02 01:14:43;;;;;;;5.60;5.00;;;7.40;99.90;;;;;;4987878;28;20235;-85
2021/05/02 01:17:12;;;;;;;5.10;4.60;;;7.40;99.90;;;;;;4990343;28;20687;-85
2021/05/02 01:19:39;;;;;;;4.47;4.07;;;7.30;99.90;;;;;;4993780;28;20231;-85
2021/05/02 01:22:12;;;;;;;3.70;3.40;;;7.30;99.90;;;;;;4992624;28;20208;-85
2021/05/02 01:24:40;;;;;;;5.17;3.90;;;7.30;99.90;;;;;;4983895;28;20232;-85
2021/05/02 01:27:07;;;;;;;4.33;3.93;;;7.20;99.90;;;;;;4996387;28;20196;-85
2021/05/02 01:29:35;;;;;;;4.63;4.23;;;7.20;99.90;;;;;;4989185;28;20978;-86
2021/05/02 01:32:02;;;;;;;4.30;3.90;;;7.10;99.90;;;;;;4996430;28;20207;-86
2021/05/02 01:34:29;;;;;;;3.80;3.50;;;7.00;99.90;;;;;;4984624;28;20231;-85
2021/05/02 01:36:56;;;;;;;3.70;3.40;;;7.00;99.90;;;;;;4981046;28;20223;-85
2021/05/02 01:39:24;;;;;;;3.43;3.13;;;7.10;99.90;;;;;;4988030;28;20224;-85
2021/05/02 01:41:52;;;;;;;3.40;3.10;;;7.10;99.90;;;;;;4990750;28;20663;-85
2021/05/02 01:44:18;;;;;;;2.80;2.60;;;7.00;99.90;;;;;;4986350;28;20278;-85
2021/05/02 01:46:48;;;;;;;2.50;2.30;;;7.00;99.90;;;;;;4987841;28;20204;-82
2021/05/02 01:49:17;;;;;;;2.43;2.23;;;6.90;99.90;;;;;;4991046;28;20236;-82
2021/05/02 01:51:45;;;;;;;2.40;2.20;;;6.80;99.90;;;;;;4990766;28;20208;-82
2021/05/02 01:54:14;;;;;;;2.60;2.33;;;6.70;99.90;;;;;;4994804;28;20223;-82
2021/05/02 01:56:41;;;;;;;2.20;2.00;;;6.70;99.90;;;;;;4998248;28;20231;-81
2021/05/02 01:59:10;;;;;;;2.43;2.23;;;6.70;99.90;;;;;;4988696;28;20223;-82
2021/05/02 02:01:36;;;;;;;2.00;1.90;;;6.70;99.90;;;;;;4996860;28;20230;-81
2021/05/02 02:04:06;;;;;;;1.90;1.80;;;6.60;99.90;;;;;;4995511;28;20219;-84
2021/05/02 02:06:33;;;;;;;2.10;2.00;;;6.60;99.90;;;;;;4994656;28;20580;-83
2021/05/02 02:09:04;;;;;;;2.10;1.90;;;6.70;99.90;;;;;;4996559;28;20228;-84
2021/05/02 02:11:31;;;;;;;2.37;1.87;;;6.60;99.90;;;;;;4989111;28;20220;-83
2021/05/02 02:13:58;;;;;;;2.20;2.00;;;6.60;99.90;;;;;;4988238;28;20243;-83
2021/05/02 02:16:26;;;;;;;1.90;1.80;;;6.60;99.90;;;;;;4991665;28;20223;-83
2021/05/02 02:18:53;;;;;;;1.87;1.77;;;6.60;99.90;;;;;;4991347;28;20559;-84
2021/05/02 02:21:22;;;;;;;2.23;1.80;;;6.60;99.90;;;;;;4991696;28;20196;-84
2021/05/02 02:23:53;;;;;;;1.40;1.30;;;6.60;99.90;;;;;;4995266;28;20587;-84
2021/05/02 02:26:25;;;;;;;1.77;1.50;;;6.60;99.90;;;;;;4991782;28;20223;-84
2021/05/02 02:28:53;;;;;;;1.60;1.50;;;6.60;99.90;;;;;;4990028;28;20232;-84
2021/05/02 02:31:21;;;;;;;2.70;1.60;;;6.50;99.90;;;;;;4990746;28;20207;-82
2021/05/02 02:33:49;;;;;;;1.50;1.40;;;6.40;99.90;;;;;;4991510;28;20227;-84
2021/05/02 02:36:16;;;;;;;1.43;1.20;;;6.40;99.90;;;;;;4991370;28;20647;-84
2021/05/02 02:38:44;;;;;;;1.80;1.30;;;6.40;99.90;;;;;;4990797;28;20234;-83
2021/05/02 02:41:14;;;;;;;1.23;1.20;;;6.30;99.90;;;;;;4986468;28;20192;-83
2021/05/02 02:43:47;;;;;;;1.30;1.20;;;6.30;99.90;;;;;;4987874;28;20219;-83
2021/05/02 02:46:17;;;;;;;1.30;1.20;;;6.30;99.90;;;;;;4993858;28;20590;-83
2021/05/02 02:48:46;;;;;;;1.03;1.03;;;6.30;99.90;;;;;;4990322;28;20224;-83
2021/05/02 02:51:16;;;;;;;2.70;1.03;;;6.20;99.90;;;;;;4991351;28;20200;-81
2021/05/02 02:53:44;;;;;;;1.17;1.07;;;6.20;99.90;;;;;;4989659;28;20591;-81
2021/05/02 02:56:14;;;;;;;1.20;1.10;;;6.20;99.90;;;;;;4995284;28;20223;-81
2021/05/02 02:58:44;;;;;;;1.93;1.10;;;6.20;99.90;;;;;;4986924;28;20220;-81
2021/05/02 03:01:12;;;;;;;1.33;1.20;;;6.10;99.90;;;;;;4990535;28;20196;-81
2021/05/02 03:03:42;;;;;;;1.20;1.10;;;6.10;99.90;;;;;;4984658;28;20239;-83
2021/05/02 03:06:09;;;;;;;1.20;1.10;;;6.10;99.90;;;;;;4986895;28;20204;-81
2021/05/02 03:08:38;;;;;;;0.90;0.90;;;6.10;99.90;;;;;;4987454;28;20628;-81
2021/05/02 03:11:05;;;;;;;1.00;1.00;;;6.10;99.90;;;;;;4991071;28;20211;-82
2021/05/02 03:13:32;;;;;;;1.20;1.10;;;6.00;99.90;;;;;;4991275;28;20232;-81
2021/05/02 03:16:01;;;;;;;1.10;0.97;;;6.00;99.90;;;;;;4996100;28;20231;-82
2021/05/02 03:18:35;;;;;;;0.90;0.90;;;6.00;99.90;;;;;;4992738;28;20232;-81
2021/05/02 03:21:04;;;;;;;1.00;1.00;;;5.90;99.90;;;;;;4990958;28;20201;-84
2021/05/02 03:23:33;;;;;;;0.90;0.90;;;5.90;99.90;;;;;;4993402;28;20703;-84
2021/05/02 03:26:05;;;;;;;0.87;0.87;;;5.80;99.90;;;;;;4993493;28;20205;-81
2021/05/02 03:28:35;;;;;;;1.00;1.00;;;5.80;99.90;;;;;;4994478;28;20634;-81
2021/05/02 03:31:03;;;;;;;1.00;1.00;;;5.80;99.90;;;;;;4992236;28;20208;-83
2021/05/02 03:33:35;;;;;;;1.00;1.00;;;5.70;99.90;;;;;;4985635;28;20295;-83
2021/05/02 03:36:10;;;;;;;1.13;1.00;;;5.70;99.90;;;;;;4990979;28;20226;-81
2021/05/02 03:38:46;;;;;;;1.00;1.00;;;5.70;99.90;;;;;;4995965;28;20242;-83
2021/05/02 03:41:14;;;;;;;0.90;0.90;;;5.60;99.90;;;;;;4994554;28;20218;-83
2021/05/02 03:43:41;;;;;;;0.80;0.80;;;5.60;99.90;;;;;;4996084;28;20228;-83
2021/05/02 03:46:23;;;;;;;0.93;0.93;;;5.60;99.90;;;;;;4990515;28;20218;-84
2021/05/02 03:48:51;;;;;;;0.80;0.80;;;5.60;99.90;;;;;;4984809;28;20363;-83
2021/05/02 03:51:17;;;;;;;0.93;0.93;;;5.60;99.90;;;;;;4986422;28;20274;-83
2021/05/02 03:53:44;;;;;;;2.10;1.00;;;5.60;99.90;;;;;;4990632;28;20235;-83
2021/05/02 03:56:10;;;;;;;0.90;0.90;;;5.60;99.80;;;;;;4985813;28;20729;-83
2021/05/02 03:58:37;;;;;;;1.13;1.13;;;5.50;99.90;;;;;;4983482;28;20286;-83
2021/05/02 04:01:03;;;;;;;2.93;1.20;;;5.50;99.90;;;;;;4989320;28;20620;-83
2021/05/02 04:03:30;;;;;;;1.20;1.10;;;5.60;99.90;;;;;;4984760;28;20240;-83
2021/05/02 04:05:56;;;;;;;1.40;1.30;;;5.50;99.90;;;;;;4991874;28;20200;-82
2021/05/02 04:08:22;;;;;;;1.40;1.30;;;5.50;99.90;;;;;;4993106;28;20223;-82
2021/05/02 04:10:48;;;;;;;1.40;1.30;;;5.40;99.90;;;;;;4987000;28;20211;-83
2021/05/02 04:13:15;;;;;;;1.73;1.63;;;5.40;99.90;;;;;;4990881;28;20213;-82
2021/05/02 04:15:42;;;;;;;2.57;1.70;;;5.50;99.90;;;;;;4991969;28;20196;-82
2021/05/02 04:18:08;;;;;;;1.97;1.87;;;5.50;99.90;;;;;;4991226;28;20208;-82
2021/05/02 04:20:34;;;;;;;2.50;1.93;;;5.60;99.90;;;;;;4993464;28;20208;-82
2021/05/02 04:23:00;;;;;;;1.80;1.70;;;5.50;99.90;;;;;;4992265;28;20208;-83
2021/05/02 04:25:27;;;;;;;1.77;1.67;;;5.60;99.90;;;;;;4989898;28;20259;-82
2021/05/02 04:27:53;;;;;;;2.27;2.07;;;5.70;99.90;;;;;;4992523;28;20211;-82
2021/05/02 04:30:20;;;;;;;2.60;2.40;;;5.70;99.90;;;;;;4988211;28;20236;-83
2021/05/02 04:32:47;;;;;;;2.87;2.50;;;5.70;99.90;;;;;;4995312;28;20195;-83
2021/05/02 04:35:13;;;;;;;2.57;2.37;;;5.60;99.90;;;;;;4987486;28;20220;-83
2021/05/02 04:37:39;;;;;;;2.90;2.60;;;5.60;99.90;;;;;;4986504;28;20752;-84
2021/05/02 04:40:07;;;;;;;4.20;3.00;;;5.50;99.90;;;;;;4992873;28;20224;-84
2021/05/02 04:42:33;;;;;;;3.20;2.90;;;5.50;99.90;;;;;;4988891;28;20203;-83
2021/05/02 04:45:00;;;;;;;3.43;3.10;;;5.60;99.90;;;;;;4988792;28;20690;-83
2021/05/02 04:47:27;;;;;;;3.67;3.20;;;5.60;99.90;;;;;;4986185;28;20209;-83
2021/05/02 04:49:54;;;;;;;3.07;2.80;;;5.50;99.90;;;;;;4994689;28;20219;-83
2021/05/02 04:52:20;;;;;;;3.10;2.80;;;5.70;99.90;;;;;;4990637;28;20208;-83
2021/05/02 04:54:46;;;;;;;3.30;3.00;;;5.60;99.90;;;;;;4993152;28;20234;-84
2021/05/02 04:57:13;;;;;;;2.77;2.57;;;5.60;99.90;;;;;;4992158;28;20224;-83
2021/05/02 04:59:39;;;;;;;3.40;3.10;;;5.70;99.40;;;;;;4995861;28;20227;-83
2021/05/02 05:02:05;;;;;;;2.83;2.57;;;5.60;99.50;;;;;;4990726;28;20212;-83
2021/05/02 05:04:32;;;;;;;3.20;2.90;;;5.70;99.10;;;;;;4989244;28;20250;-83
2021/05/02 05:06:59;;;;;;;2.70;2.50;;;5.50;99.20;;;;;;4991252;28;20231;-83
2021/05/02 05:09:25;;;;;;;3.23;2.50;;;5.50;99.20;;;;;;4985922;28;20227;-83
2021/05/02 05:11:52;;;;;;;4.27;3.10;;;5.50;99.10;;;;;;4989784;28;20204;-83
2021/05/02 05:14:18;;;;;;;3.67;2.73;;;5.50;99.70;;;;;;4993356;28;20231;-83
2021/05/02 05:16:44;;;;;;;2.57;2.37;;;5.50;99.90;;;;;;4987422;28;20711;-83
2021/05/02 05:19:10;;;;;;;2.83;2.63;;;5.50;99.70;;;;;;4994061;28;20391;-84
2021/05/02 05:21:37;;;;;;;3.07;2.77;;;5.50;99.50;;;;;;5000325;28;20207;-83
2021/05/02 05:24:06;;;;;;;2.57;2.37;;;5.60;99.80;;;;;;4987581;28;20230;-83
2021/05/02 05:26:32;;;;;;;2.37;2.17;;;5.60;99.50;;;;;;4998524;28;20655;-83
2021/05/02 05:28:59;;;;;;;2.47;2.27;;;5.70;99.00;;;;;;4991944;28;20232;-83
2021/05/02 05:31:25;;;;;;;3.97;2.10;;;5.60;98.90;;;;;;4988121;28;20284;-83
2021/05/02 05:33:51;;;;;;;3.93;2.43;;;5.60;99.50;;;;;;4985553;28;20220;-83
2021/05/02 05:36:18;;;;;;;2.43;2.20;;;5.60;98.80;;;;;;4989915;28;20227;-82
2021/05/02 05:38:44;;;;;;;2.50;2.30;;;5.70;99.10;;;;;;4984041;28;20227;-82
2021/05/02 05:41:11;;;;;;;3.07;2.47;;;5.70;98.60;;;;;;4986972;28;20201;-83
2021/05/02 05:43:38;;;;;;;2.53;2.33;;;5.60;98.10;;;;;;4992577;28;20631;-83
2021/05/02 05:46:04;;;;;;;2.90;2.70;;;5.50;98.70;;;;;;4988825;28;20200;-82
2021/05/02 05:48:31;;;;;;;3.00;2.80;;;5.60;98.50;;;;;;4981604;28;20239;-82
2021/05/02 05:50:57;;;;;;;2.70;2.40;;;5.60;98.60;;;;;;4987400;28;20234;-82
2021/05/02 05:53:24;;;;;;;3.20;2.90;;;5.60;98.20;;;;;;4987519;28;20722;-82
2021/05/02 05:55:50;;;;;;;2.70;2.50;;;5.50;97.80;;;;;;4989037;28;20582;-83
2021/05/02 05:58:18;;;;;;;2.87;2.60;;;5.40;98.30;;;;;;4991822;28;20203;-82
2021/05/02 06:00:44;;;;;;;3.00;2.70;;;5.40;98.50;;;;;;4981900;28;20588;-82
2021/05/02 06:03:10;;;;;;;3.00;2.77;;;5.40;98.90;;;;;;4990104;28;20200;-83
2021/05/02 06:05:36;;;;;;;2.60;2.40;;;5.50;98.90;;;;;;4992806;28;20627;-83
2021/05/02 06:08:03;;;;;;;2.13;1.93;;;5.50;98.90;;;;;;4987550;28;20239;-82
2021/05/02 06:10:29;;;;;;;2.43;2.23;;;5.60;99.00;;;;;;4986142;28;20615;-83
2021/05/02 06:12:55;;;;;;;2.40;2.13;;;5.60;99.10;;;;;;4982917;28;20268;-82
2021/05/02 06:15:23;;;;;;;2.00;1.90;;;5.70;99.30;;;;;;4984925;28;20228;-82
2021/05/02 06:17:49;;;;;;;2.07;1.87;;;5.80;98.60;;;;;;4984875;28;20227;-82
2021/05/02 06:20:15;;;;;;;2.77;2.57;;;5.90;97.90;;;;;;4983386;28;20227;-82
2021/05/02 06:22:42;;;;;;;2.70;2.50;;;5.80;97.40;;;;;;4991962;28;20567;-82
2021/05/02 06:25:09;;;;;;;3.07;2.87;;;5.80;97.70;;;;;;4991249;28;20658;-82
2021/05/02 06:27:35;;;;;;;3.20;2.90;;;5.70;97.50;;;;;;4986747;28;20220;-83
2021/05/02 06:30:03;;;;;;;3.23;2.93;;;5.80;97.60;;;;;;4984175;28;20232;-83
2021/05/02 06:32:30;;;;;;;3.10;2.90;;;5.80;97.70;;;;;;4988642;28;20553;-82
2021/05/02 06:34:57;;;;;;;3.43;3.13;;;5.90;97.10;;;;;;4985738;28;20228;-82
2021/05/02 06:37:23;;;;;;;3.70;3.40;;;5.90;97.10;;;;;;4990143;28;20624;-82
2021/05/02 06:39:49;;;;;;;3.47;3.17;;;5.90;96.70;;;;;;4985025;28;20240;-82
2021/05/02 06:42:16;;;;;;;3.50;3.20;;;5.90;97.20;;;;;;4986286;28;20201;-82
2021/05/02 06:44:42;;;;;;;3.87;3.57;;;6.00;97.00;;;;;;4986682;28;20535;-83
2021/05/02 06:47:08;;;;;;;4.47;4.07;;;5.90;96.80;;;;;;4984576;28;20741;-83
2021/05/02 06:49:36;;;;;;;4.07;3.73;;;5.90;97.10;;;;;;4984781;28;20286;-82
2021/05/02 06:52:02;;;;;;;5.47;4.47;;;5.90;97.70;;;;;;4989111;28;20200;-82
2021/05/02 06:54:28;;;;;;;5.07;4.57;;;6.00;97.40;;;;;;4983036;28;20225;-82
2021/05/02 06:56:58;;;;;;;5.37;4.87;;;6.00;97.50;;;;;;4989005;28;20222;-82
2021/05/02 06:59:26;;;;;;;5.23;4.73;;;6.10;97.70;;;;;;4983924;28;20307;-83
2021/05/02 07:01:53;;;;;;;5.47;4.90;;;6.00;97.90;;;;;;4990276;28;20283;-83
2021/05/02 07:04:21;;;;;;;5.97;5.47;;;6.00;98.10;;;;;;4984890;28;20758;-82
2021/05/02 07:06:49;;;;;;;6.17;5.57;;;6.00;98.20;;;;;;4984762;28;20212;-82
2021/05/02 07:09:16;;;;;;;6.43;5.83;;;6.00;98.40;;;;;;4983436;28;20247;-83
2021/05/02 07:11:42;;;;;;;6.77;6.10;;;5.90;98.80;;;;;;4986092;28;20310;-82
2021/05/02 07:14:13;;;;;;;6.10;5.47;;;6.00;99.00;;;;;;4990602;28;20599;-81
2021/05/02 07:16:39;;;;;;;6.73;6.03;;;6.10;98.20;;;;;;4992645;28;20219;-82
2021/05/02 07:19:05;;;;;;;6.57;5.97;;;6.10;98.60;;;;;;4991915;28;20242;-83
2021/05/02 07:21:32;;;;;;;6.83;6.13;;;6.20;98.70;;;;;;4997559;28;20333;-84
2021/05/02 07:23:59;;;;;;;7.67;6.87;;;6.40;98.20;;;;;;4993462;28;20230;-81
2021/05/02 07:26:27;;;;;;;7.50;6.70;;;6.30;98.00;;;;;;4996224;28;20219;-82
2021/05/02 07:28:53;;;;;;;7.43;6.73;;;6.20;98.20;;;;;;4988877;28;20227;-84
2021/05/02 07:31:19;;;;;;;7.90;7.10;;;6.20;98.60;;;;;;4982026;28;20299;-83
2021/05/02 07:33:46;;;;;;;7.43;6.73;;;6.30;98.30;;;;;;4982599;28;20227;-84
2021/05/02 07:36:14;;;;;;;7.70;6.90;;;6.30;98.40;;;;;;4984321;28;20207;-84
2021/05/02 07:38:42;;;;;;;7.87;7.17;;;6.30;99.00;;;;;;4983382;28;20605;-84
2021/05/02 07:41:10;;;;;;;7.23;6.53;;;6.30;98.30;;;;;;4983371;28;20201;-90
2021/05/02 07:43:37;;;;;;;7.70;6.80;;;6.20;98.60;;;;;;4986577;28;20220;-86
2021/05/02 07:46:04;;;;;;;7.47;6.77;;;6.30;98.70;;;;;;4982522;28;20254;-85
2021/05/02 07:48:30;;;;;;;8.37;7.50;;;6.40;98.60;;;;;;4986752;28;20231;-84
2021/05/02 07:50:57;;;;;;;8.37;7.53;;;6.40;98.00;;;;;;4979565;28;20228;-85
2021/05/02 07:53:24;;;;;;;9.13;8.23;;;6.30;98.00;;;;;;4981215;28;20223;-85
2021/05/02 07:55:50;;;;;;;9.83;8.57;;;6.40;98.30;;;;;;4987695;28;20204;-85
2021/05/02 07:58:18;;;;;;;10.87;9.60;;;6.50;97.60;;;;;;4973657;28;20232;-85
2021/05/02 08:00:44;;;;;;;10.30;9.27;;;6.40;97.80;;;;;;4979760;28;20200;-84
2021/05/02 08:03:11;;;;;;;10.77;9.67;;;6.40;97.80;;;;;;4984940;28;20207;-87
2021/05/02 08:05:37;;;;;;;9.83;8.83;;;6.40;98.10;;;;;;4982175;28;20232;-87
2021/05/02 08:08:04;;;;;;;9.87;8.87;;;6.50;97.20;;;;;;4982523;28;20216;-85
2021/05/02 08:10:30;;;;;;;9.77;8.87;;;6.40;97.20;;;;;;4983020;28;20204;-86
2021/05/02 08:12:57;;;;;;;9.80;8.50;;;6.40;97.80;;;;;;4982738;28;20575;-85
2021/05/02 08:15:25;;;;;;;8.60;7.70;;;6.50;98.00;;;;;;4983199;28;20226;-85
2021/05/02 08:17:51;;;;;;;10.20;8.70;;;6.50;97.60;;;;;;4980461;28;20694;-85
2021/05/02 08:20:17;;;;;;;10.33;9.17;;;6.40;97.90;;;;;;4978514;28;20534;-88
2021/05/02 08:22:44;;;;;;;9.43;8.53;;;6.50;97.80;;;;;;4985293;28;20223;-90
2021/05/02 08:25:11;;;;;;;9.80;8.37;;;6.60;97.50;;;;;;4986036;28;20425;-86
2021/05/02 08:27:38;;;;;;;10.40;9.27;;;6.60;98.00;;;;;;4987474;28;20200;-88
2021/05/02 08:30:05;;;;;;;10.80;9.57;;;6.70;98.10;;;;;;4978197;28;20726;-87
2021/05/02 08:32:32;;;;;;;10.97;9.87;;;6.60;96.60;;;;;;4982996;28;20212;-88
2021/05/02 08:35:01;;;;;;;11.07;9.80;;;6.50;96.80;;;;;;4985724;28;20578;-86
2021/05/02 08:37:28;;;;;;;11.47;10.27;;;6.70;97.50;;;;;;4989822;28;20322;-87
2021/05/02 08:39:54;;;;;;;11.80;10.50;;;6.80;96.40;;;;;;4993758;28;20223;-86
2021/05/02 08:42:21;;;;;;;10.93;9.83;;;6.70;96.80;;;;;;4992822;28;20204;-88
2021/05/02 08:44:47;;;;;;;10.47;9.47;;;6.60;96.90;;;;;;4985148;28;20683;-87
2021/05/02 08:47:14;;;;;;;11.17;9.97;;;6.70;97.30;;;;;;4984555;28;20197;-87
2021/05/02 08:49:42;;;;;;;9.27;8.37;;;6.80;97.30;;;;;;4988620;28;20656;-88
2021/05/02 08:52:12;;;;;;;8.30;7.50;;;6.90;96.60;;;;;;4982043;28;20544;-88
2021/05/02 08:54:38;;;;;;;9.03;8.10;;;6.80;95.90;;;;;;4989771;28;20318;-87
2021/05/02 08:57:13;;;;;;;10.80;8.63;;;6.80;95.40;;;;;;4991098;28;20235;-87
2021/05/02 08:59:40;;;;;;;11.20;9.60;;;6.70;95.40;;;;;;4992776;28;20223;-85
2021/05/02 09:02:07;;;;;;;10.20;9.20;;;6.60;96.40;;;;;;4992927;28;20200;-88
2021/05/02 09:04:35;;;;;;;11.07;9.83;;;6.60;97.00;;;;;;5002237;28;20231;-88
2021/05/02 09:07:16;;;;;;;11.10;10.00;;;6.70;97.10;;;;;;4991244;28;20250;-87
2021/05/02 09:09:43;;;;;;;12.13;10.93;;;7.00;96.00;;;;;;4987818;28;20244;-88
2021/05/02 09:12:19;;;;;;;17.33;13.60;;;7.20;95.50;;;;;;5000739;28;20203;-88
2021/05/02 09:14:46;;;;;;;13.60;11.57;;;7.40;95.40;;;;;;4989369;28;20259;-89
2021/05/02 09:17:15;;;;;;;12.80;11.50;;;7.30;94.50;;;;;;4999911;28;20220;-87
2021/05/02 09:19:47;;;;;;;13.83;12.47;;;7.00;94.50;;;;;;4988523;28;20251;-87
2021/05/02 09:22:15;;;;;;;13.40;12.10;;;6.90;95.50;;;;;;5004928;28;20265;-87
2021/05/02 09:24:41;;;;;;;13.90;12.40;;;6.70;95.40;;;;;;4988383;28;20227;-88
2021/05/02 09:27:11;;;;;;;13.43;12.13;;;6.80;96.00;;;;;;4999973;28;20198;-85
2021/05/02 09:29:38;;;;;;;13.00;11.70;;;6.80;95.40;;;;;;4998730;28;20290;-87
2021/05/02 09:32:07;;;;;;;13.83;12.43;;;7.00;95.90;;;;;;4994456;28;20200;-89
2021/05/02 09:34:34;;;;;;;14.40;13.00;;;7.40;95.60;;;;;;4997385;28;20216;-87
2021/05/02 09:37:03;;;;;;;13.50;12.20;;;7.50;93.50;;;;;;4993192;28;20568;-89
2021/05/02 09:39:53;;;;;;;13.63;12.33;;;7.80;93.20;;;;;;4997949;28;20637;-89
2021/05/02 09:42:21;;;;;;;13.90;12.50;;;7.80;93.00;;;;;;4984215;28;20212;-89
2021/05/02 09:44:50;;;;;;;15.80;13.03;;;7.90;92.90;;;;;;4990465;28;20278;-87
2021/05/02 09:47:28;;;;;;;13.67;12.37;;;9.00;92.30;;;;;;4988609;28;20211;-90
2021/05/02 09:50:14;;;;;;;11.80;10.63;;;8.90;90.40;;;;;;4992854;28;20216;-87
2021/05/02 09:52:46;;;;;;;12.93;11.63;;;9.10;90.50;;;;;;5000376;28;20292;-87
2021/05/02 10:01:38;;;;;;;10.87;9.80;;;9.00;91.60;;;;;;4983497;28;20185;-88
2021/05/02 10:04:05;;;;;;;10.63;9.63;;;8.80;90.90;;;;;;4995395;28;20254;-88
2021/05/02 10:06:33;;;;;;;10.55;9.55;;;9.00;90.50;;;;;;5001258;28;20192;-88
2021/05/02 10:09:07;;;;;;;11.20;9.40;;;9.00;91.50;;;;;;5001382;28;20252;-87
2021/05/02 10:14:58;;;;;;;10.33;9.33;;;9.10;90.50;;;;;;5003018;28;20247;-86
2021/05/02 10:17:52;;;;;;;10.13;9.05;;;9.00;91.10;;;;;;5003863;28;20228;-86
2021/05/02 10:27:29;;;;;;;9.68;8.55;;;9.10;90.50;;;;;;5003535;28;20218;-87
2021/05/02 10:29:59;;;;;;;10.00;8.98;;;9.30;90.50;;;;;;4995209;28;20315;-86
2021/05/02 10:32:33;;;;;;;8.98;8.15;;;9.50;90.60;;;;;;4995327;28;20203;-86
2021/05/02 10:35:07;;;;;;;8.05;7.35;;;10.20;87.40;;;;;;4997123;28;20223;-86
2021/05/02 10:37:36;;;;;;;7.25;6.60;;;10.60;87.20;;;;;;5004479;28;20215;-86
2021/05/02 10:40:13;;;;;;;8.48;7.68;;;11.70;79.70;;;;;;5025393;28;20246;-85
2021/05/02 10:45:53;;;;;;;7.88;7.05;;;11.80;71.30;;;;;;5002806;28;20230;-87
2021/05/02 10:48:47;;;;;;;7.32;6.18;;;10.90;74.00;;;;;;4990266;28;20674;-85
2021/05/02 10:51:30;;;;;;;9.05;6.25;;;10.50;79.20;;;;;;5001215;28;20192;-86
2021/05/02 10:54:05;;;;;;;9.98;8.57;;;10.20;81.80;;;;;;4995839;28;20303;-86
2021/05/02 10:56:46;;;;;;;9.77;8.88;;;9.80;82.70;;;;;;4993822;28;20266;-87
2021/05/02 10:59:16;;;;;;;7.68;6.82;;;9.60;90.00;;;;;;4979596;28;20282;-88
2021/05/02 11:01:43;;;;;;;9.80;8.90;;;10.10;88.80;;;;;;4992587;28;20218;-87
2021/05/02 11:04:10;;;;;;;9.60;8.70;;;10.00;87.00;;;;;;4990596;28;20283;-88
2021/05/02 11:07:02;;;;;;;8.35;7.45;;;10.20;81.60;;;;;;4992704;28;20269;-88
2021/05/02 11:09:51;;;;;;;14.70;9.52;;;10.00;84.80;;;;;;4991545;28;20229;-90
2021/05/02 11:12:31;;;;;;;10.10;9.02;;;10.20;86.70;;;;;;4993443;28;20200;-87
2021/05/02 11:14:58;;;;;;;10.75;9.73;;;10.60;83.30;;;;;;5000162;28;20295;-87
2021/05/02 11:17:37;;;;;;;12.43;10.40;;;10.80;77.30;;;;;;4995090;28;20240;-87
2021/05/02 11:20:07;;;;;;;12.07;10.98;;;10.90;77.40;;;;;;4975626;28;20227;-87
2021/05/02 11:28:45;;;;;;;13.05;10.77;;;11.20;77.20;;;;;;4967814;28;20224;-87
2021/05/02 11:31:13;;;;;;;12.55;11.27;;;10.90;74.00;;;;;;4970483;28;20208;-85
2021/05/02 11:34:10;;;;;;;12.35;11.15;;;10.40;73.50;;;;;;4999427;28;20693;-87
2021/05/02 11:36:38;;;;;;;13.30;12.00;;;9.90;79.90;;;;;;5002148;28;20200;-88
2021/05/02 11:39:05;;;;;;;13.07;11.77;;;9.50;80.90;;;;;;4996395;28;20324;-87
2021/05/02 11:42:01;;;;;;;14.50;13.00;;;9.40;84.80;;;;;;4992816;28;20200;-87
2021/05/02 11:44:27;;;;;;;13.75;12.45;;;9.20;86.60;;;;;;4993729;28;20220;-87
2021/05/02 11:46:55;;;;;;;14.20;12.90;;;9.50;88.10;;;;;;4991063;28;20200;-87
2021/05/02 11:49:22;;;;;;;13.77;12.48;;;9.70;85.20;;;;;;4991998;28;20322;-89
2021/05/02 11:51:56;;;;;;;13.57;12.27;;;10.00;83.20;;;;;;4997954;28;20216;-86
2021/05/02 11:54:22;;;;;;;14.77;13.25;;;10.10;81.40;;;;;;4996723;28;20252;-88
2021/05/02 11:56:51;;;;;;;14.23;12.70;;;10.00;80.50;;;;;;4994665;28;20234;-89
2021/05/02 11:59:18;;;;;;;15.30;13.82;;;9.30;80.10;;;;;;4992095;28;20291;-86
2021/05/02 12:01:48;;;;;;;16.90;15.10;;;8.70;87.00;;;;;;4995847;28;21052;-87
2021/05/02 12:04:18;;;;;;;18.13;16.33;;;8.60;91.50;;;;;;4987987;28;20231;-86
2021/05/02 12:06:49;;;;;;;17.83;16.00;;;8.70;91.50;;;;;;4995345;28;20207;-86
2021/05/02 12:09:16;;;;;;;16.90;15.23;;;9.00;90.70;;;;;;4994990;28;20219;-87
2021/05/02 12:11:45;;;;;;;14.88;13.38;;;9.20;90.50;;;;;;4997716;28;20223;-87
2021/05/02 12:14:17;;;;;;;14.00;12.63;;;9.40;87.90;;;;;;5001816;28;20224;-87
2021/05/02 12:16:48;;;;;;;15.15;13.65;;;9.80;87.10;;;;;;4999315;28;20214;-86
2021/05/02 12:19:14;;;;;;;14.18;12.63;;;10.20;84.40;;;;;;4996530;28;20288;-86
2021/05/02 12:21:43;;;;;;;195.70;157.25;;;10.70;82.70;;;;;;4999286;28;20208;-90
2021/05/02 12:24:13;;;;;;;17.38;15.60;;;10.90;84.60;;;;;;4993129;28;20526;-88
2021/05/02 12:26:43;;;;;;;14.93;13.43;;;10.90;82.00;;;;;;4994361;28;20203;-86
2021/05/02 12:29:12;;;;;;;14.00;12.68;;;11.10;79.60;;;;;;5004492;28;20248;-87
2021/05/02 12:31:38;;;;;;;13.43;12.13;;;11.40;76.30;;;;;;5007044;28;20196;-87
2021/05/02 12:34:09;;;;;;;14.32;12.93;;;11.50;74.70;;;;;;5003889;28;20249;-87
2021/05/02 12:36:36;;;;;;;13.60;12.40;;;11.70;75.00;;;;;;5006489;28;20227;-86
2021/05/02 12:39:08;;;;;;;15.27;12.98;;;11.70;75.00;;;;;;5005382;28;20227;-87
2021/05/02 12:41:37;;;;;;;14.43;13.02;;;11.80;75.00;;;;;;5004428;28;20208;-87
2021/05/02 12:44:21;;;;;;;14.27;12.93;;;11.80;71.10;;;;;;5004230;28;20235;-87
2021/05/02 12:46:49;;;;;;;14.45;13.07;;;11.90;72.00;;;;;;4997474;28;20218;-87
2021/05/02 12:49:22;;;;;;;14.52;13.18;;;11.70;65.70;;;;;;5000916;28;20231;-88
2021/05/02 12:51:51;;;;;;;15.52;14.02;;;11.80;72.60;;;;;;4996297;28;20342;-87
2021/05/02 12:54:20;;;;;;;14.88;13.27;;;12.00;75.20;;;;;;4998045;28;20228;-88
2021/05/02 12:57:03;;;;;;;15.60;14.00;;;12.30;68.50;;;;;;5000829;28;20208;-90
2021/05/02 12:59:38;;;;;;;16.48;14.88;;;11.90;68.90;;;;;;5001906;28;20679;-87
2021/05/02 13:02:09;;;;;;;15.85;14.32;;;12.00;70.00;;;;;;4998393;28;20215;-87
2021/05/02 13:04:48;;;;;;;16.13;14.32;;;11.70;64.10;;;;;;4997876;28;20224;-87
2021/05/02 13:07:17;;;;;;;15.18;13.70;;;12.00;66.60;;;;;;4999237;28;20199;-88
2021/05/02 13:09:45;;;;;;;16.45;14.80;;;12.40;67.70;;;;;;4997786;28;20702;-87
2021/05/02 13:12:13;;;;;;;16.90;15.20;;;12.60;64.70;;;;;;4993459;28;20204;-87
2021/05/02 13:14:40;;;;;;;18.17;16.38;;;12.20;64.70;;;;;;4993184;28;20255;-88
2021/05/02 13:17:13;;;;;;;17.08;15.38;;;11.90;66.90;;;;;;4994289;28;20809;-86
2021/05/02 13:19:41;;;;;;;17.17;15.38;;;12.00;66.40;;;;;;4997500;28;20291;-88
2021/05/02 13:22:20;;;;;;;17.63;15.80;;;12.00;62.90;;;;;;5004282;28;20268;-88
2021/05/02 13:24:54;;;;;;;17.08;15.38;;;12.00;61.30;;;;;;4999197;28;20317;-88
2021/05/02 13:27:43;;;;;;;16.23;14.63;;;12.10;59.20;;;;;;5003275;28;20293;-88